createdAt,value
2017-08-21T00:00:21.534Z,101220.86
2017-08-21T00:02:48.930Z,101217.95
2017-08-21T00:05:16.327Z,101213.45
2017-08-21T00:07:43.736Z,101218.10
2017-08-21T00:10:11.127Z,101231.25
2017-08-21T00:12:38.547Z,101221.21
2017-08-21T00:15:05.950Z,101225.97
2017-08-21T00:17:33.366Z,101218.52
2017-08-21T00:20:00.768Z,101215.41
2017-08-21T00:22:28.206Z,101217.18
2017-08-21T00:24:55.598Z,101224.73
2017-08-21T00:27:22.993Z,101225.24
2017-08-21T00:29:50.402Z,101225.36
2017-08-21T00:32:17.799Z,101222.88
2017-08-21T00:34:45.198Z,101222.91
2017-08-21T00:37:12.615Z,101219.02
2017-08-21T00:39:40.015Z,101219.55
2017-08-21T00:42:07.413Z,101223.70
2017-08-21T00:44:34.830Z,101217.33
2017-08-21T00:47:02.228Z,101222.31
2017-08-21T00:49:29.630Z,101218.30
2017-08-21T00:51:57.183Z,101216.29
2017-08-21T00:54:24.585Z,101210.82
2017-08-21T00:56:51.986Z,101207.02
2017-08-21T00:59:19.398Z,101211.88
2017-08-21T01:01:46.794Z,101208.59
2017-08-21T01:04:14.187Z,101206.21
2017-08-21T01:06:41.639Z,101196.19
2017-08-21T01:09:09.027Z,101195.48
2017-08-21T01:11:36.426Z,101195.41
2017-08-21T01:14:03.836Z,101189.58
2017-08-21T01:16:31.230Z,101192.42
2017-08-21T01:18:58.634Z,101195.95
2017-08-21T01:21:26.192Z,101198.58
2017-08-21T01:23:53.582Z,101195.98
2017-08-21T01:26:20.986Z,101192.51
2017-08-21T01:28:48.390Z,101191.06
2017-08-21T01:31:15.778Z,101190.05
2017-08-21T01:33:43.179Z,101196.95
2017-08-21T01:36:11.018Z,101216.79
2017-08-21T01:38:38.414Z,101210.17
2017-08-21T01:41:05.815Z,101197.78
2017-08-21T01:43:33.272Z,101204.30
2017-08-21T01:46:00.666Z,101201.82
2017-08-21T01:48:28.054Z,101193.70
2017-08-21T01:50:55.482Z,101185.83
2017-08-21T01:53:22.878Z,101194.22
2017-08-21T01:55:50.274Z,101187.73
2017-08-21T01:58:17.686Z,101199.45
2017-08-21T02:00:45.083Z,101196.70
2017-08-21T02:03:12.487Z,101200.13
2017-08-21T02:05:39.994Z,101187.00
2017-08-21T02:08:07.401Z,101189.16
2017-08-21T02:10:34.795Z,101195.99
2017-08-21T02:13:02.290Z,101195.80
2017-08-21T02:15:29.690Z,101193.50
2017-08-21T02:17:57.088Z,101195.78
2017-08-21T02:20:24.539Z,101198.66
2017-08-21T02:22:51.934Z,101190.09
2017-08-21T02:25:19.337Z,101193.01
2017-08-21T02:27:46.742Z,101187.22
2017-08-21T02:30:14.138Z,101196.01
2017-08-21T02:32:41.531Z,101187.85
2017-08-21T02:35:08.954Z,101184.38
2017-08-21T02:37:36.345Z,101190.80
2017-08-21T02:40:03.743Z,101186.16
2017-08-21T02:42:31.541Z,101184.17
2017-08-21T02:44:58.940Z,101177.87
2017-08-21T02:47:26.334Z,101184.45
2017-08-21T02:49:53.743Z,101185.47
2017-08-21T02:52:21.143Z,101184.43
2017-08-21T02:54:48.534Z,101183.74
2017-08-21T02:57:16.086Z,101181.45
2017-08-21T02:59:43.487Z,101181.86
2017-08-21T03:02:10.882Z,101181.45
2017-08-21T03:04:38.290Z,101185.09
2017-08-21T03:07:05.690Z,101182.83
2017-08-21T03:09:33.092Z,101181.43
2017-08-21T03:12:00.648Z,101189.59
2017-08-21T03:14:28.034Z,101183.09
2017-08-21T03:16:55.436Z,101184.88
2017-08-21T03:19:22.876Z,101184.16
2017-08-21T03:21:50.273Z,101185.21
2017-08-21T03:24:17.674Z,101188.33
2017-08-21T03:26:45.094Z,101192.67
2017-08-21T03:29:12.495Z,101185.55
2017-08-21T03:31:39.892Z,101188.87
2017-08-21T03:34:07.450Z,101194.58
2017-08-21T03:36:34.837Z,101190.34
2017-08-21T03:39:02.233Z,101189.72
2017-08-21T03:41:29.791Z,101193.42
2017-08-21T03:43:57.186Z,101185.19
2017-08-21T03:46:24.580Z,101190.55
2017-08-21T03:48:52.315Z,101187.64
2017-08-21T03:51:19.709Z,101188.80
2017-08-21T03:53:47.109Z,101190.95
2017-08-21T03:56:14.683Z,101181.20
2017-08-21T03:58:42.056Z,101182.96
2017-08-21T04:01:09.452Z,101177.07
2017-08-21T04:03:36.878Z,101190.70
2017-08-21T04:06:04.274Z,101187.38
2017-08-21T04:08:31.671Z,101180.78
2017-08-21T04:10:59.218Z,101187.15
2017-08-21T04:13:26.611Z,101196.83
2017-08-21T04:15:54.003Z,101196.83
2017-08-21T04:18:21.446Z,101197.14
2017-08-21T04:20:48.846Z,101196.33
2017-08-21T04:23:16.243Z,101202.42
2017-08-21T04:25:43.666Z,101195.30
2017-08-21T04:28:11.062Z,101198.59
2017-08-21T04:30:38.461Z,101196.44
2017-08-21T04:33:05.867Z,101199.43
2017-08-21T04:35:33.265Z,101196.32
2017-08-21T04:38:00.668Z,101204.78
2017-08-21T04:40:28.086Z,101206.55
2017-08-21T04:42:55.482Z,101205.31
2017-08-21T04:45:22.879Z,101200.16
2017-08-21T04:47:50.295Z,101204.17
2017-08-21T04:50:17.690Z,101205.52
2017-08-21T04:52:45.087Z,101200.99
2017-08-21T04:55:12.494Z,101208.81
2017-08-21T04:57:39.890Z,101208.81
2017-08-21T05:00:07.282Z,101213.86
2017-08-21T05:02:34.994Z,101212.80
2017-08-21T05:05:02.382Z,101215.40
2017-08-21T05:07:29.778Z,101206.33
2017-08-21T05:09:57.333Z,101217.23
2017-08-21T05:12:24.726Z,101218.27
2017-08-21T05:14:52.128Z,101222.90
2017-08-21T05:17:19.886Z,101220.64
2017-08-21T05:19:47.292Z,101220.34
2017-08-21T05:22:14.701Z,101226.87
2017-08-21T05:24:42.202Z,101225.73
2017-08-21T05:27:09.603Z,101232.11
2017-08-21T05:29:37.006Z,101227.66
2017-08-21T05:32:04.453Z,101235.58
2017-08-21T05:34:31.848Z,101233.92
2017-08-21T05:36:59.246Z,101233.48
2017-08-21T05:39:26.671Z,101234.27
2017-08-21T05:41:54.071Z,101237.75
2017-08-21T05:44:21.469Z,101224.62
2017-08-21T05:46:48.914Z,101225.20
2017-08-21T05:49:16.313Z,101230.53
2017-08-21T05:51:43.710Z,101229.49
2017-08-21T05:54:11.582Z,101231.55
2017-08-21T05:56:38.990Z,101238.53
2017-08-21T05:59:06.377Z,101233.81
2017-08-21T06:01:33.788Z,101236.28
2017-08-21T06:04:01.183Z,101244.72
2017-08-21T06:06:28.578Z,101237.84
2017-08-21T06:08:56.127Z,101237.99
2017-08-21T06:11:23.526Z,101241.84
2017-08-21T06:13:50.930Z,101248.52
2017-08-21T06:16:18.491Z,101246.20
2017-08-21T06:18:45.886Z,101236.95
2017-08-21T06:21:13.324Z,101241.70
2017-08-21T06:23:40.726Z,101243.25
2017-08-21T06:26:08.566Z,101248.33
2017-08-21T06:28:35.962Z,101248.33
2017-08-21T06:31:03.515Z,101244.53
2017-08-21T06:33:30.911Z,101239.22
2017-08-21T06:35:58.302Z,101244.30
2017-08-21T06:38:25.743Z,101247.96
2017-08-21T06:40:53.151Z,101245.18
2017-08-21T06:43:20.550Z,101239.92
2017-08-21T06:45:47.975Z,101246.42
2017-08-21T06:48:15.374Z,101245.84
2017-08-21T06:50:42.790Z,101252.87
2017-08-21T06:53:10.672Z,101252.55
2017-08-21T06:55:38.506Z,101252.31
2017-08-21T06:58:05.906Z,101253.98
2017-08-21T07:00:33.450Z,101249.93
2017-08-21T07:03:00.851Z,101247.82
2017-08-21T07:05:28.236Z,101246.06
2017-08-21T07:07:55.642Z,101241.97
2017-08-21T07:10:23.039Z,101241.90
2017-08-21T07:12:50.434Z,101244.86
2017-08-21T07:15:17.842Z,101242.50
2017-08-21T07:17:45.234Z,101246.20
2017-08-21T07:20:12.634Z,101250.09
2017-08-21T07:22:40.186Z,101245.08
2017-08-21T07:25:07.619Z,101247.35
2017-08-21T07:27:35.017Z,101248.66
2017-08-21T07:30:02.888Z,101248.61
2017-08-21T07:32:30.288Z,101246.91
2017-08-21T07:34:57.678Z,101245.67
2017-08-21T07:37:25.227Z,101247.16
2017-08-21T07:39:52.626Z,101247.80
2017-08-21T07:42:20.022Z,101252.05
2017-08-21T07:44:47.526Z,101251.68
2017-08-21T07:47:14.922Z,101244.62
2017-08-21T07:49:42.322Z,101256.06
2017-08-21T07:52:09.871Z,101251.58
2017-08-21T07:54:37.266Z,101253.03
2017-08-21T07:57:04.670Z,101250.25
2017-08-21T07:59:32.179Z,101251.94
2017-08-21T08:01:59.575Z,101253.45
2017-08-21T08:04:26.966Z,101253.37
2017-08-21T08:06:54.723Z,101262.20
2017-08-21T08:09:22.119Z,101262.04
2017-08-21T08:11:49.520Z,101258.70
2017-08-21T08:14:16.940Z,101259.05
2017-08-21T08:16:44.337Z,101262.03
2017-08-21T08:19:11.732Z,101259.20
2017-08-21T08:21:39.283Z,101259.19
2017-08-21T08:24:06.698Z,101254.34
2017-08-21T08:26:34.113Z,101257.09
2017-08-21T08:29:01.552Z,101253.75
2017-08-21T08:31:28.946Z,101253.42
2017-08-21T08:33:56.342Z,101261.51
2017-08-21T08:36:23.762Z,101256.45
2017-08-21T08:38:51.170Z,101261.88
2017-08-21T08:41:18.559Z,101261.23
2017-08-21T08:43:46.081Z,101257.83
2017-08-21T08:46:13.466Z,101263.63
2017-08-21T08:48:40.871Z,101267.84
2017-08-21T08:51:08.279Z,101265.97
2017-08-21T08:53:35.658Z,101264.36
2017-08-21T08:56:03.062Z,101270.58
2017-08-21T08:58:30.794Z,101270.16
2017-08-21T09:00:58.194Z,101279.16
2017-08-21T09:03:25.602Z,101270.19
2017-08-21T09:05:53.011Z,101272.89
2017-08-21T09:08:20.427Z,101267.26
2017-08-21T09:10:47.807Z,101262.77
2017-08-21T09:13:15.308Z,101264.31
2017-08-21T09:15:42.686Z,101261.00
2017-08-21T09:18:10.074Z,101261.08
2017-08-21T09:20:37.911Z,101263.12
2017-08-21T09:23:05.294Z,101258.53
2017-08-21T09:25:32.703Z,101262.09
2017-08-21T09:28:00.211Z,101261.81
2017-08-21T09:30:27.594Z,101260.70
2017-08-21T09:32:54.987Z,101266.80
2017-08-21T09:35:22.487Z,101256.66
2017-08-21T09:37:50.047Z,101259.55
2017-08-21T09:40:17.429Z,101257.41
2017-08-21T09:42:45.227Z,101255.67
2017-08-21T09:45:12.619Z,101260.27
2017-08-21T09:47:40.019Z,101256.42
2017-08-21T09:50:07.426Z,101256.04
2017-08-21T09:52:34.815Z,101251.23
2017-08-21T09:55:02.207Z,101254.23
2017-08-21T09:57:29.754Z,101254.22
2017-08-21T09:59:57.158Z,101263.85
2017-08-21T10:02:24.554Z,101259.66
2017-08-21T10:04:51.974Z,101257.11
2017-08-21T10:07:19.370Z,101249.09
2017-08-21T10:09:47.151Z,101257.97
2017-08-21T10:12:14.698Z,101249.85
2017-08-21T10:14:42.088Z,101244.88
2017-08-21T10:17:09.481Z,101241.52
2017-08-21T10:19:37.030Z,101247.25
2017-08-21T10:22:04.434Z,101251.36
2017-08-21T10:24:31.833Z,101251.54
2017-08-21T10:26:59.535Z,101244.04
2017-08-21T10:29:26.931Z,101248.25
2017-08-21T10:31:54.326Z,101251.58
2017-08-21T10:34:21.875Z,101244.81
2017-08-21T10:36:49.270Z,101246.98
2017-08-21T10:39:16.675Z,101245.86
2017-08-21T10:41:44.087Z,101241.98
2017-08-21T10:44:11.483Z,101241.03
2017-08-21T10:46:38.889Z,101242.61
2017-08-21T10:49:06.315Z,101241.09
2017-08-21T10:51:33.718Z,101242.86
2017-08-21T10:54:01.115Z,101235.16
2017-08-21T10:56:28.535Z,101229.73
2017-08-21T10:58:55.931Z,101228.67
2017-08-21T11:01:23.330Z,101222.22
2017-08-21T11:03:51.039Z,101220.45
2017-08-21T11:06:18.442Z,101218.41
2017-08-21T11:08:45.836Z,101216.16
2017-08-21T11:11:13.597Z,101206.70
2017-08-21T11:13:40.983Z,101208.80
2017-08-21T11:16:08.379Z,101202.86
2017-08-21T11:18:35.818Z,101202.08
2017-08-21T11:21:03.210Z,101203.64
2017-08-21T11:23:30.616Z,101198.05
2017-08-21T11:25:58.034Z,101205.44
2017-08-21T11:28:25.431Z,101199.70
2017-08-21T11:30:52.830Z,101189.52
2017-08-21T11:33:20.387Z,101189.63
2017-08-21T11:35:47.827Z,101187.97
2017-08-21T11:38:15.220Z,101186.47
2017-08-21T11:40:42.645Z,101181.76
2017-08-21T11:43:10.042Z,101181.34
2017-08-21T11:45:37.434Z,101175.58
2017-08-21T11:48:04.987Z,101180.57
2017-08-21T11:50:32.390Z,101181.44
2017-08-21T11:52:59.787Z,101175.45
2017-08-21T11:55:27.339Z,101172.23
2017-08-21T11:57:54.738Z,101164.27
2017-08-21T12:00:22.134Z,101167.96
2017-08-21T12:02:49.682Z,101162.33
2017-08-21T12:05:17.072Z,101171.48
2017-08-21T12:07:44.470Z,101171.25
2017-08-21T12:10:12.242Z,101169.16
2017-08-21T12:12:39.643Z,101168.78
2017-08-21T12:15:07.059Z,101167.77
2017-08-21T12:17:34.471Z,101161.25
2017-08-21T12:20:01.862Z,101155.92
2017-08-21T12:22:29.255Z,101157.72
2017-08-21T12:24:56.804Z,101162.50
2017-08-21T12:27:24.202Z,101163.19
2017-08-21T12:29:51.591Z,101157.92
2017-08-21T12:32:19.091Z,101151.82
2017-08-21T12:34:46.479Z,101152.70
2017-08-21T12:37:13.879Z,101154.80
2017-08-21T12:39:41.286Z,101155.51
2017-08-21T12:42:08.690Z,101157.24
2017-08-21T12:44:36.078Z,101157.68
2017-08-21T12:47:03.827Z,101169.41
2017-08-21T12:49:31.218Z,101155.00
2017-08-21T12:51:58.619Z,101147.47
2017-08-21T12:54:26.127Z,101140.55
2017-08-21T12:56:53.523Z,101138.28
2017-08-21T12:59:20.927Z,101141.08
2017-08-21T13:01:48.769Z,101139.75
2017-08-21T13:04:16.167Z,101150.13
2017-08-21T13:06:43.558Z,101145.70
2017-08-21T13:09:10.968Z,101141.05
2017-08-21T13:11:38.363Z,101140.01
2017-08-21T13:14:05.763Z,101134.56
2017-08-21T13:16:33.323Z,101132.98
2017-08-21T13:19:00.717Z,101126.62
2017-08-21T13:21:28.109Z,101127.72
2017-08-21T13:23:55.663Z,101121.36
2017-08-21T13:26:23.052Z,101119.27
2017-08-21T13:28:50.450Z,101120.58
2017-08-21T13:31:17.865Z,101118.48
2017-08-21T13:33:45.255Z,101114.44
2017-08-21T13:36:12.646Z,101108.36
2017-08-21T13:38:40.090Z,101107.78
2017-08-21T13:41:07.486Z,101111.05
2017-08-21T13:43:34.883Z,101111.82
2017-08-21T13:46:02.430Z,101111.84
2017-08-21T13:48:29.823Z,101110.24
2017-08-21T13:50:57.230Z,101111.05
2017-08-21T13:53:24.642Z,101105.88
2017-08-21T13:55:52.048Z,101100.50
2017-08-21T13:58:19.451Z,101097.34
2017-08-21T14:00:46.894Z,101097.41
2017-08-21T14:03:14.298Z,101094.33
2017-08-21T14:05:41.707Z,101094.48
2017-08-21T14:08:09.118Z,101090.06
2017-08-21T14:10:36.523Z,101082.58
2017-08-21T14:13:03.923Z,101090.27
2017-08-21T14:15:31.469Z,101080.20
2017-08-21T14:17:58.862Z,101081.61
2017-08-21T14:20:26.313Z,101085.63
2017-08-21T14:22:54.038Z,101081.84
2017-08-21T14:25:21.432Z,101070.59
2017-08-21T14:27:48.887Z,101063.70
2017-08-21T14:30:16.434Z,101060.91
2017-08-21T14:33:15.515Z,101054.22
2017-08-21T14:35:42.928Z,101052.80
2017-08-21T14:38:10.319Z,101054.88
2017-08-21T14:40:37.718Z,101049.72
2017-08-21T14:43:05.158Z,101046.88
2017-08-21T14:45:32.562Z,101049.56
2017-08-21T14:47:59.963Z,101043.18
2017-08-21T14:50:27.518Z,101049.00
2017-08-21T14:52:54.915Z,101045.30
2017-08-21T14:55:22.307Z,101051.08
2017-08-21T14:57:50.019Z,101048.42
2017-08-21T15:00:17.419Z,101056.05
2017-08-21T15:02:44.815Z,101055.67
2017-08-21T15:05:12.277Z,101053.08
2017-08-21T15:07:39.650Z,101054.98
2017-08-21T15:10:07.054Z,101052.00
2017-08-21T15:12:34.930Z,101053.64
2017-08-21T15:15:02.327Z,101048.90
2017-08-21T15:17:29.726Z,101056.09
2017-08-21T15:19:57.279Z,101052.41
2017-08-21T15:22:24.676Z,101043.99
2017-08-21T15:24:52.071Z,101040.72
2017-08-21T15:27:19.479Z,101048.20
2017-08-21T15:29:46.882Z,101051.88
2017-08-21T15:32:14.278Z,101051.59
2017-08-21T15:34:41.697Z,101060.56
2017-08-21T15:37:09.098Z,101057.05
2017-08-21T15:39:36.490Z,101054.59
2017-08-21T15:42:03.915Z,101058.95
2017-08-21T15:44:31.311Z,101059.23
2017-08-21T15:46:58.707Z,101059.63
2017-08-21T15:49:26.143Z,101057.86
2017-08-21T15:51:53.538Z,101056.23
2017-08-21T15:54:20.931Z,101059.63
2017-08-21T15:56:48.333Z,101062.06
2017-08-21T15:59:15.731Z,101065.09
2017-08-21T16:01:43.127Z,101063.42
2017-08-21T16:04:10.547Z,101056.63
2017-08-21T16:06:37.942Z,101062.06
2017-08-21T16:09:05.339Z,101066.30
2017-08-21T16:11:33.093Z,101058.81
2017-08-21T16:14:00.491Z,101058.72
2017-08-21T16:16:27.886Z,101062.83
2017-08-21T16:18:55.376Z,101059.89
2017-08-21T16:21:22.771Z,101056.91
2017-08-21T16:23:50.165Z,101055.56
2017-08-21T16:26:17.580Z,101052.15
2017-08-21T16:28:44.975Z,101050.78
2017-08-21T16:31:12.370Z,101050.86
2017-08-21T16:33:39.778Z,101045.67
2017-08-21T16:36:07.172Z,101046.08
2017-08-21T16:38:34.567Z,101046.87
2017-08-21T16:41:02.075Z,101048.77
2017-08-21T16:43:29.466Z,101050.61
2017-08-21T16:45:56.863Z,101045.84
2017-08-21T16:48:24.369Z,101043.19
2017-08-21T16:50:51.791Z,101042.05
2017-08-21T16:53:19.158Z,101045.52
2017-08-21T16:55:46.761Z,101035.02
2017-08-21T16:58:14.156Z,101036.94
2017-08-21T17:00:41.555Z,101027.70
2017-08-21T17:03:09.001Z,101030.58
2017-08-21T17:05:36.392Z,101030.98
2017-08-21T17:08:03.786Z,101029.49
2017-08-21T17:10:31.667Z,101036.13
2017-08-21T17:12:59.059Z,101030.95
2017-08-21T17:15:26.455Z,101025.34
2017-08-21T17:17:53.877Z,101028.64
2017-08-21T17:20:21.270Z,101027.02
2017-08-21T17:22:48.670Z,101027.30
2017-08-21T17:25:16.083Z,101029.89
2017-08-21T17:27:43.486Z,101029.48
2017-08-21T17:30:10.883Z,101027.41
2017-08-21T17:32:38.295Z,101025.36
2017-08-21T17:35:05.694Z,101025.34
2017-08-21T17:37:33.098Z,101018.38
2017-08-21T17:40:00.611Z,101027.06
2017-08-21T17:42:27.998Z,101024.47
2017-08-21T17:44:55.398Z,101024.28
2017-08-21T17:47:22.952Z,101029.41
2017-08-21T17:49:50.346Z,101028.12
2017-08-21T17:52:17.745Z,101028.21
2017-08-21T17:54:45.379Z,101016.92
2017-08-21T17:57:12.774Z,101020.48
2017-08-21T17:59:40.170Z,101026.56
2017-08-21T18:02:07.573Z,101023.35
2017-08-21T18:04:34.971Z,101019.61
2017-08-21T18:07:02.372Z,101019.42
2017-08-21T18:09:30.135Z,101016.81
2017-08-21T18:11:57.531Z,101015.41
2017-08-21T18:14:24.923Z,101020.07
2017-08-21T18:16:52.474Z,101020.42
2017-08-21T18:19:19.871Z,101027.80
2017-08-21T18:21:47.266Z,101032.84
2017-08-21T18:24:14.680Z,101028.66
2017-08-21T18:26:42.075Z,101029.66
2017-08-21T18:29:09.475Z,101037.88
2017-08-21T18:31:37.026Z,101036.91
2017-08-21T18:34:04.426Z,101038.03
2017-08-21T18:36:31.838Z,101033.46
2017-08-21T18:38:59.279Z,101034.72
2017-08-21T18:41:26.676Z,101036.16
2017-08-21T18:43:54.084Z,101032.39
2017-08-21T18:46:21.522Z,101025.19
2017-08-21T18:48:48.918Z,101027.56
2017-08-21T18:51:16.358Z,101033.25
2017-08-21T18:53:43.767Z,101032.88
2017-08-21T18:56:11.162Z,101036.59
2017-08-21T18:58:38.559Z,101041.63
2017-08-21T19:01:06.322Z,101039.08
2017-08-21T19:03:33.714Z,101038.69
2017-08-21T19:06:01.119Z,101036.92
2017-08-21T19:08:28.612Z,101043.69
2017-08-21T19:10:56.011Z,101045.48
2017-08-21T19:13:23.407Z,101043.23
2017-08-21T19:15:51.270Z,101046.16
2017-08-21T19:18:18.670Z,101048.91
2017-08-21T19:20:46.066Z,101050.50
2017-08-21T19:23:13.470Z,101045.95
2017-08-21T19:25:40.880Z,101047.45
2017-08-21T19:28:08.275Z,101053.05
2017-08-21T19:30:35.676Z,101052.84
2017-08-21T19:33:03.065Z,101057.31
2017-08-21T19:35:30.931Z,101051.92
2017-08-21T19:37:58.334Z,101057.58
2017-08-21T19:40:25.731Z,101056.39
2017-08-21T19:42:53.241Z,101053.38
2017-08-21T19:45:20.631Z,101062.06
2017-08-21T19:47:48.027Z,101063.73
2017-08-21T19:50:15.434Z,101054.17
2017-08-21T19:52:42.840Z,101065.61
2017-08-21T19:55:10.350Z,101064.80
2017-08-21T19:57:37.774Z,101068.20
2017-08-21T20:00:05.175Z,101068.76
2017-08-21T20:02:32.579Z,101071.48
2017-08-21T20:04:59.982Z,101073.28
2017-08-21T20:07:27.422Z,101067.30
2017-08-21T20:09:54.818Z,101070.58
2017-08-21T20:12:22.216Z,101057.66
2017-08-21T20:14:49.628Z,101055.66
2017-08-21T20:17:17.026Z,101057.02
2017-08-21T20:19:44.431Z,101055.19
2017-08-21T20:22:11.822Z,101052.68
2017-08-21T20:24:39.234Z,101066.86
2017-08-21T20:27:06.627Z,101065.67
2017-08-21T20:29:34.026Z,101069.75
2017-08-21T20:32:01.426Z,101069.27
2017-08-21T20:34:28.822Z,101062.53
2017-08-21T20:36:56.375Z,101056.27
2017-08-21T20:39:23.770Z,101058.96
2017-08-21T20:41:51.166Z,101062.20
2017-08-21T20:44:18.566Z,101064.78
2017-08-21T20:46:45.960Z,101067.31
2017-08-21T20:49:13.516Z,101065.38
2017-08-21T20:51:40.911Z,101062.09
2017-08-21T20:54:08.312Z,101060.16
2017-08-21T20:56:35.714Z,101064.86
2017-08-21T20:59:03.116Z,101065.80
2017-08-21T21:01:30.527Z,101061.05
2017-08-21T21:03:57.923Z,101062.17
2017-08-21T21:06:25.323Z,101039.59
2017-08-21T21:08:52.723Z,101043.12
2017-08-21T21:11:20.118Z,101047.28
2017-08-21T21:13:47.534Z,101057.36
2017-08-21T21:16:14.931Z,101052.50
2017-08-21T21:18:42.327Z,101051.92
2017-08-21T21:21:09.738Z,101053.13
2017-08-21T21:23:37.153Z,101056.89
2017-08-21T21:26:04.698Z,101064.98
2017-08-21T21:28:32.098Z,101063.74
2017-08-21T21:30:59.487Z,101067.86
2017-08-21T21:33:26.887Z,101069.13
2017-08-21T21:35:54.307Z,101068.35
2017-08-21T21:38:21.711Z,101070.72
2017-08-21T21:40:49.106Z,101062.19
2017-08-21T21:43:16.503Z,101062.27
2017-08-21T21:45:43.902Z,101060.20
2017-08-21T21:48:11.298Z,101060.75
2017-08-21T21:50:38.738Z,101057.98
2017-08-21T21:53:06.135Z,101060.90
2017-08-21T21:55:33.539Z,101062.54
2017-08-21T21:58:00.931Z,101065.43
2017-08-21T22:00:28.327Z,101070.57
2017-08-21T22:02:55.743Z,101062.84
2017-08-21T22:05:23.138Z,101052.47
2017-08-21T22:07:50.531Z,101054.16
2017-08-21T22:10:17.931Z,101057.86
2017-08-21T22:12:45.327Z,101055.53
2017-08-21T22:15:12.874Z,101051.85
2017-08-21T22:17:40.271Z,101046.27
2017-08-21T22:20:07.666Z,101044.22
2017-08-21T22:22:35.071Z,101040.45
2017-08-21T22:25:02.466Z,101041.22
2017-08-21T22:27:30.019Z,101044.25
2017-08-21T22:29:57.418Z,101047.44
2017-08-21T22:32:24.813Z,101055.16
2017-08-21T22:34:52.214Z,101055.38
2017-08-21T22:37:19.607Z,101051.70
2017-08-21T22:39:47.051Z,101051.97
2017-08-21T22:42:14.442Z,101048.44
2017-08-21T22:44:41.842Z,101050.97
2017-08-21T22:47:09.243Z,101053.52
2017-08-21T22:49:36.638Z,101046.84
2017-08-21T22:52:04.142Z,101045.52
2017-08-21T22:54:31.542Z,101051.92
2017-08-21T22:56:58.947Z,101044.45
2017-08-21T22:59:26.347Z,101043.61
2017-08-21T23:01:53.748Z,101041.14
2017-08-21T23:04:21.302Z,101038.70
2017-08-21T23:06:48.703Z,101044.33
2017-08-21T23:09:16.105Z,101042.31
2017-08-21T23:11:43.506Z,101039.77
2017-08-21T23:14:10.908Z,101045.76
2017-08-21T23:16:38.411Z,101041.11
2017-08-21T23:19:05.814Z,101040.67
2017-08-21T23:21:33.207Z,101032.23
2017-08-21T23:24:00.610Z,101028.68
2017-08-21T23:26:28.010Z,101033.28
2017-08-21T23:28:55.451Z,101023.91
2017-08-21T23:31:22.843Z,101024.95
2017-08-21T23:33:50.247Z,101016.92
2017-08-21T23:36:17.654Z,101025.55
2017-08-21T23:38:45.051Z,101030.13
2017-08-21T23:41:12.473Z,101030.15
2017-08-21T23:43:39.878Z,101027.91
2017-08-21T23:46:07.278Z,101025.05
2017-08-21T23:48:34.678Z,101024.86
2017-08-21T23:51:02.074Z,101023.80
2017-08-21T23:53:29.553Z,101024.92
2017-08-21T23:55:56.938Z,101019.52
2017-08-21T23:58:24.342Z,101021.91
